FYWH/WDH METAR and TAF weather

Enter ICAO airport designator
Station Type Date Time Source
FYWH METAR 2021/09/23 18:00 UTC NOAA

FYWH 231800Z 24007KT CAVOK 21/M10 Q1022 NOSIG


Station Type Date Time Source
FYWH Decoded METAR 2021/09/23 18:00 UTC NOAA

J. G. Strijdom, Namibia (FYWH) 22-29S 017-28E 1700M
Sep 23, 2021 - 02:00 PM EDT / 2021.09.23 1800 UTC
Wind: from the WSW (240 degrees) at 8 MPH (7 KT):0
Visibility: greater than 7 mile(s):0
Temperature: 69 F (21 C)
Dew Point: 14 F (-10 C)
Relative Humidity: 11%
Pressure (altimeter): 30.18 in. Hg (1022 hPa)
ob: FYWH 231800Z 24007KT CAVOK 21/M10 Q1022 NOSIG
cycle: 18

Station Type Date Time Source
FYWH TAF 2021/09/23 18:03 UTC NOAA

TAF TAF FYWH 231600Z 2318/2418 25010KT CAVOK

Example: see airport list